Vojens, Denmark
Current Conditions -  °F | °C
As of 9:20 AM on Friday 31 Oct 2014 (Local Time) from EKSP Reporting Station
Haze Haze  
Wind Chill: 52°   Ceiling: 200
Heat Index: 52°   Visibility: 0.62mi
Dew Point: 52°   Wind: 7mph
Humidity: 100%   Direction: 190°S
Pressure: 30.15"   Gusts: NA
Location:  55.25°N, 9.31°E
Report Text: EKSP 310820Z 19006KT 160V220 1000 R10/P2000N R28/1100V1900UBR VV002 11/11 Q1021 TEMPO 2000
Loading
Personal Weather Stations






























Interactive Weather Map
Tropical Storm Tracking
New forecast layout! Learn more

10-Day Weather Forecast

Advertisements
Track Severe Weather on mobile